North Crossroads, Mississippi
Current Conditions -  °F | °C
As of 12:15 PM on Sunday 25 Jan 2015 (Local Time) from KCRX Reporting Station
Overcast Overcast  
Wind Chill: 13°   Ceiling: 11000
Heat Index: 13°   Visibility: 10mi
Dew Point:   Wind: 15mph
Humidity: 51%   Direction: 200°SSW
Pressure: 29.69"   Gusts: NA
Location:  34.8106°N, 88.1999°W
Report Text: KCRX 251815Z AUTO 20013KT 10SM OVC110 13/03 A2969 RMK AO2
Loading
Personal Weather Stations






























Interactive Weather Map New forecast layout! Learn more

10-Day Weather Forecast

Advertisements
Track Severe Weather on mobile